createdAt,value
2023-02-23T00:03:20.764Z,13.80
2023-02-23T00:08:28.180Z,14.43
2023-02-23T00:13:30.984Z,14.13
2023-02-23T00:18:44.929Z,14.32
2023-02-23T00:23:54.103Z,14.27
2023-02-23T00:28:57.340Z,14.63
2023-02-23T00:34:02.858Z,14.95
2023-02-23T00:39:20.746Z,14.10
2023-02-23T00:44:25.398Z,15.13
2023-02-23T00:49:28.566Z,14.00
2023-02-23T00:54:32.735Z,14.30
2023-02-23T00:59:35.533Z,15.68
2023-02-23T01:04:38.277Z,14.80
2023-02-23T01:09:43.622Z,14.82
2023-02-23T01:14:47.681Z,14.02
2023-02-23T01:19:50.447Z,14.00
2023-02-23T01:24:54.580Z,16.30
2023-02-23T01:29:57.337Z,15.63
2023-02-23T01:35:00.058Z,15.38
2023-02-23T01:40:10.653Z,15.70
2023-02-23T01:45:32.289Z,14.35
2023-02-23T01:50:43.393Z,14.45
2023-02-23T01:55:51.729Z,15.38
2023-02-23T02:00:58.428Z,15.20
2023-02-23T02:06:02.812Z,15.75
2023-02-23T02:11:25.779Z,15.93
2023-02-23T02:16:43.419Z,15.65
2023-02-23T02:22:22.735Z,15.43
2023-02-23T02:27:43.412Z,15.18
2023-02-23T02:33:13.519Z,14.70
2023-02-23T02:38:40.959Z,15.98
2023-02-23T02:43:52.000Z,15.82
2023-02-23T02:49:00.500Z,14.88
2023-02-23T02:54:16.402Z,14.48
2023-02-23T02:59:38.996Z,15.05
2023-02-23T03:04:59.343Z,15.02
2023-02-23T03:10:31.645Z,14.20
2023-02-23T03:16:01.098Z,15.02
2023-02-23T03:21:27.553Z,16.52
2023-02-23T03:26:54.650Z,15.77
2023-02-23T03:32:26.119Z,15.30
2023-02-23T03:37:53.754Z,15.82
2023-02-23T03:43:18.781Z,16.05
2023-02-23T03:48:40.932Z,17.60
2023-02-23T03:54:09.777Z,16.45
2023-02-23T03:59:35.698Z,15.97
2023-02-23T04:04:57.868Z,15.95
2023-02-23T04:10:18.278Z,15.35
2023-02-23T04:15:27.129Z,15.65
2023-02-23T04:20:29.954Z,15.82
2023-02-23T04:25:32.813Z,14.98
2023-02-23T04:30:37.162Z,15.82
2023-02-23T04:35:40.511Z,15.57
2023-02-23T04:40:43.275Z,16.52
2023-02-23T04:45:47.609Z,16.85
2023-02-23T04:50:53.549Z,18.58
2023-02-23T04:55:56.731Z,17.52
2023-02-23T05:01:07.478Z,17.55
2023-02-23T05:06:10.591Z,16.83
2023-02-23T05:11:14.153Z,16.42
2023-02-23T05:16:18.349Z,17.52
2023-02-23T05:21:21.295Z,16.45
2023-02-23T05:26:24.667Z,16.67
2023-02-23T05:31:29.354Z,17.58
2023-02-23T05:36:32.184Z,17.15
2023-02-23T05:41:35.077Z,17.70
2023-02-23T05:46:39.331Z,17.70
2023-02-23T05:51:42.443Z,16.65
2023-02-23T05:56:45.687Z,16.92
2023-02-23T06:01:50.094Z,17.98
2023-02-23T06:06:52.912Z,17.98
2023-02-23T06:11:55.775Z,20.75
2023-02-23T06:17:00.999Z,19.30
2023-02-23T06:22:03.845Z,17.25
2023-02-23T06:27:07.180Z,19.30
2023-02-23T06:32:11.719Z,22.17
2023-02-23T06:37:21.084Z,20.92
2023-02-23T06:42:24.260Z,22.10
2023-02-23T06:47:28.726Z,20.48
2023-02-23T06:52:31.669Z,21.42
2023-02-23T06:57:34.790Z,20.83
2023-02-23T07:02:38.911Z,22.48
2023-02-23T07:07:41.837Z,22.13
2023-02-23T07:12:44.719Z,22.35
2023-02-23T07:17:49.308Z,22.52
2023-02-23T07:22:52.068Z,22.15
2023-02-23T07:27:55.064Z,23.30
2023-02-23T07:32:59.205Z,23.45
2023-02-23T07:38:01.985Z,22.92
2023-02-23T07:43:04.773Z,21.30
2023-02-23T07:48:08.974Z,22.00
2023-02-23T07:53:12.424Z,22.88
2023-02-23T07:58:15.718Z,23.27
2023-02-23T08:03:19.945Z,22.20
2023-02-23T08:08:22.705Z,22.80
2023-02-23T08:13:25.700Z,21.55
2023-02-23T08:18:29.814Z,22.95
2023-02-23T08:23:33.305Z,21.65
2023-02-23T08:28:36.046Z,22.35
2023-02-23T08:33:40.866Z,21.15
2023-02-23T08:38:43.742Z,21.48
2023-02-23T08:43:46.640Z,23.05
2023-02-23T08:48:50.778Z,22.15
2023-02-23T08:53:53.575Z,20.35
2023-02-23T08:58:57.647Z,21.88
2023-02-23T09:04:02.204Z,20.23
2023-02-23T09:09:05.037Z,22.20
2023-02-23T09:14:08.581Z,22.85
2023-02-23T09:19:12.746Z,25.08
2023-02-23T09:24:18.520Z,25.73
2023-02-23T09:29:21.614Z,27.30
2023-02-23T09:34:26.219Z,27.85
2023-02-23T09:39:37.600Z,27.08
2023-02-23T09:44:52.363Z,32.10
2023-02-23T09:49:58.363Z,33.25
2023-02-23T09:55:01.240Z,33.17
2023-02-23T10:00:11.698Z,32.42
2023-02-23T10:05:16.969Z,31.17
2023-02-23T10:10:29.356Z,31.20
2023-02-23T10:15:39.586Z,31.35
2023-02-23T10:20:51.980Z,31.70
2023-02-23T10:25:59.312Z,32.38
2023-02-23T10:31:03.652Z,30.70
2023-02-23T10:36:14.949Z,31.13
2023-02-23T10:41:17.989Z,29.13
2023-02-23T10:46:25.870Z,30.05
2023-02-23T10:51:37.435Z,30.45
2023-02-23T10:56:46.017Z,31.90
2023-02-23T11:02:01.498Z,29.63
2023-02-23T11:07:16.445Z,29.05
2023-02-23T11:12:22.754Z,28.80
2023-02-23T11:17:29.096Z,25.83
2023-02-23T11:22:35.914Z,26.08
2023-02-23T11:27:39.686Z,24.55
2023-02-23T11:32:43.871Z,25.38
2023-02-23T11:37:48.670Z,24.52
2023-02-23T11:42:57.254Z,23.52
2023-02-23T11:48:02.274Z,25.23
2023-02-23T11:53:14.165Z,24.05
2023-02-23T11:58:25.672Z,24.38
2023-02-23T12:03:31.628Z,24.08
2023-02-23T12:08:44.586Z,24.15
2023-02-23T12:13:53.644Z,23.33
2023-02-23T12:19:01.594Z,23.08
2023-02-23T12:24:16.782Z,22.98
2023-02-23T12:29:30.066Z,21.52
2023-02-23T12:34:39.339Z,24.67
2023-02-23T12:39:48.203Z,23.23
2023-02-23T12:44:54.008Z,22.10
2023-02-23T12:50:07.146Z,23.48
2023-02-23T12:55:14.268Z,22.77
2023-02-23T13:00:44.456Z,23.13
2023-02-23T13:05:52.998Z,22.20
2023-02-23T13:11:08.566Z,21.27
2023-02-23T13:16:17.746Z,21.95
2023-02-23T13:21:25.473Z,24.25
2023-02-23T13:26:38.764Z,23.50
2023-02-23T13:31:43.468Z,23.45
2023-02-23T13:36:46.892Z,22.17
2023-02-23T13:42:09.691Z,21.02
2023-02-23T13:47:34.650Z,21.15
2023-02-23T13:52:40.969Z,18.67
2023-02-23T13:57:46.100Z,18.05
2023-02-23T14:02:49.814Z,15.05
2023-02-23T14:07:55.329Z,14.48
2023-02-23T14:13:09.280Z,15.07
2023-02-23T14:18:54.152Z,14.38
2023-02-23T14:24:15.281Z,15.00
2023-02-23T14:29:31.818Z,11.50
2023-02-23T14:34:47.096Z,12.30
2023-02-23T14:39:52.204Z,11.85
2023-02-23T14:44:57.784Z,11.13
2023-02-23T14:50:02.468Z,11.43
2023-02-23T14:55:20.981Z,11.27
2023-02-23T15:00:28.883Z,11.05
2023-02-23T15:05:34.033Z,11.18
2023-02-23T15:10:39.766Z,10.68
2023-02-23T15:15:46.744Z,10.98
2023-02-23T15:20:52.882Z,11.70
2023-02-23T15:25:58.088Z,10.40
2023-02-23T15:31:04.866Z,11.27
2023-02-23T15:36:15.385Z,12.23
2023-02-23T15:41:37.327Z,11.48
2023-02-23T15:46:50.524Z,12.50
2023-02-23T15:51:59.698Z,12.32
2023-02-23T15:57:06.876Z,12.35
2023-02-23T16:02:17.908Z,11.95
2023-02-23T16:07:23.053Z,12.18
2023-02-23T16:12:31.999Z,11.30
2023-02-23T16:17:43.673Z,10.65
2023-02-23T16:22:53.440Z,9.35
2023-02-23T16:28:01.387Z,8.35
2023-02-23T16:33:11.821Z,8.20
2023-02-23T16:38:21.608Z,7.15
2023-02-23T16:43:24.376Z,5.90
2023-02-23T16:48:30.114Z,7.68
2023-02-23T16:53:35.540Z,6.25
2023-02-23T16:58:38.809Z,8.65
2023-02-23T17:03:52.677Z,5.35
2023-02-23T17:08:58.716Z,5.45
2023-02-23T17:14:01.618Z,3.80
2023-02-23T17:19:07.527Z,4.13
2023-02-23T17:24:10.365Z,4.88
2023-02-23T17:29:13.136Z,3.78
2023-02-23T17:34:17.661Z,3.05
2023-02-23T17:39:20.497Z,4.07
2023-02-23T17:44:23.440Z,3.90
2023-02-23T17:49:30.116Z,4.05
2023-02-23T17:54:32.850Z,3.63
2023-02-23T17:59:38.607Z,3.65
2023-02-23T18:04:43.505Z,3.10
2023-02-23T18:09:47.367Z,3.75
2023-02-23T18:14:50.292Z,4.68
2023-02-23T18:20:42.802Z,3.42
2023-02-23T18:26:11.917Z,3.17
2023-02-23T18:31:17.846Z,3.83
2023-02-23T18:36:22.903Z,3.30
2023-02-23T18:41:30.617Z,3.20
2023-02-23T18:46:34.023Z,4.45
2023-02-23T18:51:37.120Z,3.08
2023-02-23T18:56:41.572Z,2.58
2023-02-23T19:01:47.882Z,2.47
2023-02-23T19:06:50.701Z,2.88
2023-02-23T19:11:55.323Z,2.70
2023-02-23T19:16:58.293Z,3.25
2023-02-23T19:22:02.171Z,3.08
2023-02-23T19:39:47.635Z,3.15
2023-02-23T19:58:43.385Z,2.92
2023-02-23T20:04:43.826Z,2.33
2023-02-23T20:10:41.635Z,2.35
2023-02-23T20:15:48.071Z,2.17
2023-02-23T20:20:52.829Z,3.63
2023-02-23T20:25:56.965Z,2.72
2023-02-23T20:31:01.574Z,2.70
2023-02-23T20:36:04.820Z,3.63
2023-02-23T20:41:09.144Z,2.83
2023-02-23T20:46:14.527Z,2.75
2023-02-23T20:51:19.482Z,2.10
2023-02-23T20:56:23.817Z,2.80
2023-02-23T21:01:27.385Z,2.83
2023-02-23T21:06:32.150Z,2.35
2023-02-23T21:11:36.243Z,2.97
2023-02-23T21:16:45.246Z,2.78
2023-02-23T21:21:49.924Z,2.28
2023-02-23T21:26:54.377Z,2.22
2023-02-23T21:31:57.206Z,1.85
2023-02-23T21:37:00.771Z,1.83
2023-02-23T21:42:05.852Z,1.83
2023-02-23T21:47:08.681Z,1.90
2023-02-23T21:52:13.681Z,1.90
2023-02-23T21:57:17.959Z,1.50
2023-02-23T22:02:20.722Z,1.25
2023-02-23T22:07:23.674Z,1.45
2023-02-23T22:12:28.508Z,1.23
2023-02-23T22:17:32.755Z,0.90
2023-02-23T22:22:36.192Z,1.65
2023-02-23T22:27:43.080Z,1.00
2023-02-23T22:32:45.962Z,1.40
2023-02-23T22:37:48.873Z,1.10
2023-02-23T22:42:54.557Z,1.90
2023-02-23T22:48:01.460Z,1.40
2023-02-23T22:53:05.974Z,1.10
2023-02-23T22:58:11.934Z,1.02
2023-02-23T23:03:14.739Z,1.08
2023-02-23T23:08:18.252Z,1.00
2023-02-23T23:13:23.412Z,0.75
2023-02-23T23:18:28.187Z,0.80
2023-02-23T23:23:30.987Z,1.08
2023-02-23T23:28:40.532Z,0.90
2023-02-23T23:33:48.508Z,0.88
2023-02-23T23:38:52.602Z,0.95
2023-02-23T23:43:58.976Z,1.10
2023-02-23T23:49:03.263Z,1.00
2023-02-23T23:54:07.988Z,1.85
2023-02-23T23:59:16.250Z,1.15
